Time;durP1;ratioP1;P1;durP2;ratioP2;P2;SDS_P1;SDS_P2;PMS_P1;PMS_P2;Temp;Humidity;BMP_temperature;BMP_pressure;BME280_temperature;BME280_humidity;BME280_pressure;Samples;Min_cycle;Max_cycle;Signal;HPM_P1;HPM_P2
2023/06/10 00:02:20;;;;;;;;;;;;;;;16.44;100.00;95511.75;5068529;28;19935;-78
2023/06/10 00:04:47;;;;;;;;;;;;;;;16.51;100.00;95502.41;5077353;28;19950;-77
2023/06/10 00:07:13;;;;;;;;;;;;;;;16.50;100.00;95505.13;5074693;28;19967;-76
2023/06/10 00:09:41;;;;;;;;;;;;;;;16.55;99.79;95509.00;5071771;28;19982;-77
2023/06/10 00:12:09;;;;;;;;;;;;;;;16.52;100.00;95505.84;5081093;28;19924;-76
2023/06/10 00:14:36;;;;;;;;;;;;;;;16.50;100.00;95513.81;5079613;28;19931;-76
2023/06/10 00:17:02;;;;;;;;;;;;;;;16.49;100.00;95504.31;5078959;28;20359;-77
2023/06/10 00:19:29;;;;;;;;;;;;;;;16.52;100.00;95511.88;5068679;28;20003;-78
2023/06/10 00:21:56;;;;;;;;;;;;;;;16.53;99.70;95510.91;5063560;28;20031;-77
2023/06/10 00:24:22;;;;;;;;;;;;;;;16.52;99.99;95509.28;5077504;28;19924;-77
2023/06/10 00:26:50;;;;;;;;;;;;;;;16.48;100.00;95500.06;5073563;28;19924;-77
2023/06/10 00:29:17;;;;;;;;;;;;;;;16.45;100.00;95503.75;5084291;28;19936;-77
2023/06/10 00:31:44;;;;;;;;;;;;;;;16.50;100.00;95505.13;5080331;28;21381;-77
2023/06/10 00:34:10;;;;;;;;;;;;;;;16.52;100.00;95509.28;5085022;28;20350;-77
2023/06/10 00:36:37;;;;;;;;;;;;;;;16.52;100.00;95506.66;5073597;28;19924;-78
2023/06/10 00:39:04;;;;;;;;;;;;;;;16.52;100.00;95506.66;5074640;28;19924;-77
2023/06/10 00:41:30;;;;;;;;;;;;;;;16.43;100.00;95505.72;5077250;28;19990;-76
2023/06/10 00:43:58;;;;;;;;;;;;;;;16.40;100.00;95505.97;5079778;28;19928;-77
2023/06/10 00:46:26;;;;;;;;;;;;;;;16.35;100.00;95513.41;5079786;28;20553;-78
2023/06/10 00:48:53;;;;;;;;;;;;;;;16.30;100.00;95513.00;5072232;28;19925;-76
2023/06/10 00:51:19;;;;;;;;;;;;;;;16.33;100.00;95509.28;5083858;28;19924;-78
2023/06/10 00:53:47;;;;;;;;;;;;;;;16.24;100.00;95510.94;5082286;28;19932;-77
2023/06/10 00:56:14;;;;;;;;;;;;;;;16.15;100.00;95506.53;5083596;28;19932;-77
2023/06/10 00:58:40;;;;;;;;;;;;;;;16.15;100.00;95506.53;5074134;28;19925;-76
2023/06/10 01:01:10;;;;;;;;;;;;;;;16.11;100.00;95516.44;5077571;28;19940;-76
2023/06/10 01:03:37;;;;;;;;;;;;;;;15.93;100.00;95512.81;5080983;28;19936;-75
2023/06/10 01:06:07;;;;;;;;;;;;;;;15.90;100.00;95513.91;5086994;28;19947;-77
2023/06/10 01:08:36;;;;;;;;;;;;;;;15.90;100.00;95503.47;5078905;28;19924;-77
2023/06/10 01:11:04;;;;;;;;;;;;;;;15.90;100.00;95502.66;5081617;28;19967;-76
2023/06/10 01:13:32;;;;;;;;;;;;;;;15.90;100.00;95500.84;5078488;28;19928;-75
2023/06/10 01:15:58;;;;;;;;;;;;;;;15.89;100.00;95508.84;5067111;28;19948;-77
2023/06/10 01:18:32;;;;;;;;;;;;;;;15.85;100.00;95500.44;5079702;28;19925;-78
2023/06/10 01:20:58;;;;;;;;;;;;;;;15.82;100.00;95507.72;5078459;28;19954;-77
2023/06/10 01:23:26;;;;;;;;;;;;;;;15.90;100.00;95500.03;5083648;28;19924;-77
2023/06/10 01:25:55;;;;;;;;;;;;;;;15.80;100.00;95499.22;5080034;28;19925;-77
2023/06/10 01:28:25;;;;;;;;;;;;;;;15.80;100.00;95497.44;5071463;28;20306;-77
2023/06/10 01:31:01;;;;;;;;;;;;;;;15.73;100.00;95504.16;5076444;28;20073;-77
2023/06/10 01:33:28;;;;;;;;;;;;;;;15.58;100.00;95502.84;5075523;28;19963;-78
2023/06/10 01:35:56;;;;;;;;;;;;;;;15.32;100.00;95507.72;5073136;28;20014;-77
2023/06/10 01:38:23;;;;;;;;;;;;;;;15.24;100.00;95505.75;5079362;28;19932;-77
2023/06/10 01:40:53;;;;;;;;;;;;;;;15.19;100.00;95513.94;5072004;28;19924;-77
2023/06/10 01:43:20;;;;;;;;;;;;;;;15.24;100.00;95509.19;5082282;28;20337;-78
2023/06/10 01:45:47;;;;;;;;;;;;;;;15.21;100.00;95516.44;5076721;28;19984;-77
2023/06/10 01:48:13;;;;;;;;;;;;;;;15.11;100.00;95520.78;5086748;28;19985;-77
2023/06/10 01:50:39;;;;;;;;;;;;;;;15.07;100.00;95515.00;5081460;28;20393;-77
2023/06/10 01:53:06;;;;;;;;;;;;;;;14.92;100.00;95513.69;5089964;28;20371;-77
2023/06/10 01:55:32;;;;;;;;;;;;;;;14.80;100.00;95520.75;5076802;28;19929;-76
2023/06/10 01:58:00;;;;;;;;;;;;;;;14.72;100.00;95523.16;5061050;28;19930;-76
2023/06/10 02:00:26;;;;;;;;;;;;;;;14.69;100.00;95516.44;5077687;28;19928;-77
2023/06/10 02:02:52;;;;;;;;;;;;;;;14.65;100.00;95520.25;5071257;28;19955;-76
2023/06/10 02:05:18;;;;;;;;;;;;;;;14.59;100.00;95518.16;5071286;28;20340;-76
2023/06/10 02:07:45;;;;;;;;;;;;;;;14.59;100.00;95519.94;5066632;28;19925;-76
2023/06/10 02:10:11;;;;;;;;;;;;;;;14.63;100.00;95526.53;5079945;28;19928;-76
2023/06/10 02:12:37;;;;;;;;;;;;;;;14.64;100.00;95525.59;5074424;28;19932;-77
2023/06/10 02:15:05;;;;;;;;;;;;;;;14.67;100.00;95525.34;5078902;28;19939;-77
2023/06/10 02:17:32;;;;;;;;;;;;;;;14.75;100.00;95528.94;5071036;28;19929;-77
2023/06/10 02:19:59;;;;;;;;;;;;;;;14.77;100.00;95529.66;5075462;28;19924;-77
2023/06/10 02:22:26;;;;;;;;;;;;;;;14.77;100.00;95523.63;5073165;28;19924;-76
2023/06/10 02:24:52;;;;;;;;;;;;;;;14.80;100.00;95530.38;5071636;28;20351;-78
2023/06/10 02:27:19;;;;;;;;;;;;;;;14.82;100.00;95536.25;5065778;28;19928;-77
2023/06/10 02:29:45;;;;;;;;;;;;;;;14.72;100.00;95531.84;5074495;28;19924;-77
2023/06/10 02:32:13;;;;;;;;;;;;;;;14.68;100.00;95524.38;5064299;28;19928;-76
2023/06/10 02:34:39;;;;;;;;;;;;;;;14.61;100.00;95531.91;5076018;28;19931;-77
2023/06/10 02:37:05;;;;;;;;;;;;;;;14.52;100.00;95532.63;5081466;28;19924;-76
2023/06/10 02:39:31;;;;;;;;;;;;;;;14.49;100.00;95528.50;5078480;28;20385;-76
2023/06/10 02:41:58;;;;;;;;;;;;;;;14.42;100.00;95532.53;5069106;28;20352;-77
2023/06/10 02:44:24;;;;;;;;;;;;;;;14.20;100.00;95537.81;5074744;28;19924;-77
2023/06/10 02:46:50;;;;;;;;;;;;;;;14.04;100.00;95536.47;5072324;28;19924;-76
2023/06/10 02:49:18;;;;;;;;;;;;;;;13.96;100.00;95538.03;5082853;28;19928;-76
2023/06/10 02:51:45;;;;;;;;;;;;;;;13.95;100.00;95539.81;5072287;28;20345;-77
2023/06/10 02:54:11;;;;;;;;;;;;;;;13.94;100.00;95534.72;5073191;28;19928;-77
2023/06/10 02:56:41;;;;;;;;;;;;;;;13.99;100.00;95537.78;5081654;28;19931;-77
2023/06/10 02:59:08;;;;;;;;;;;;;;;13.95;100.00;95537.22;5069857;28;19925;-77
2023/06/10 03:01:36;;;;;;;;;;;;;;;14.00;100.00;95534.22;5089461;28;20449;-76
2023/06/10 03:04:03;;;;;;;;;;;;;;;13.95;100.00;95533.78;5068922;28;20288;-77
2023/06/10 03:06:33;;;;;;;;;;;;;;;13.95;100.00;95539.81;5084613;28;19971;-77
2023/06/10 03:08:59;;;;;;;;;;;;;;;13.95;100.00;95539.00;5078639;28;20451;-77
2023/06/10 03:11:25;;;;;;;;;;;;;;;13.93;100.00;95538.28;5083874;28;19970;-77
2023/06/10 03:13:52;;;;;;;;;;;;;;;13.91;100.00;95542.78;5074481;28;19928;-77
2023/06/10 03:16:18;;;;;;;;;;;;;;;13.96;100.00;95543.25;5066371;28;20016;-77
2023/06/10 03:18:44;;;;;;;;;;;;;;;13.96;100.00;95538.84;5075444;28;19931;-77
2023/06/10 03:21:11;;;;;;;;;;;;;;;14.07;100.00;95539.78;5071573;28;20280;-76
2023/06/10 03:23:38;;;;;;;;;;;;;;;14.08;100.00;95541.44;5077747;28;19929;-77
2023/06/10 03:26:05;;;;;;;;;;;;;;;14.04;100.00;95538.25;5075034;28;19985;-76
2023/06/10 03:28:31;;;;;;;;;;;;;;;14.01;100.00;95543.69;5075620;28;20446;-77
2023/06/10 03:30:58;;;;;;;;;;;;;;;14.03;100.00;95547.00;5076779;28;19925;-77
2023/06/10 03:33:24;;;;;;;;;;;;;;;14.03;100.00;95549.63;5076009;28;19983;-77
2023/06/10 03:35:50;;;;;;;;;;;;;;;14.08;100.00;95554.44;5075513;28;19924;-77
2023/06/10 03:38:17;;;;;;;;;;;;;;;14.02;100.00;95548.78;5077593;28;19928;-77
2023/06/10 03:40:45;;;;;;;;;;;;;;;13.83;100.00;95555.56;5078690;28;19939;-76
2023/06/10 03:43:11;;;;;;;;;;;;;;;13.64;100.00;95558.78;5075993;28;20399;-76
2023/06/10 03:45:37;;;;;;;;;;;;;;;13.64;100.00;95557.00;5080889;28;19943;-77
2023/06/10 03:48:04;;;;;;;;;;;;;;;13.69;100.00;95561.88;5078379;28;19954;-76
2023/06/10 03:50:30;;;;;;;;;;;;;;;13.86;100.00;95566.56;5073349;28;19955;-77
2023/06/10 03:52:56;;;;;;;;;;;;;;;13.72;100.00;95565.06;5081522;28;19936;-77
2023/06/10 03:55:23;;;;;;;;;;;;;;;13.61;100.00;95569.44;5076351;28;20348;-77
2023/06/10 03:57:51;;;;;;;;;;;;;;;13.54;100.00;95564.72;5074198;28;20015;-77
2023/06/10 04:00:17;;;;;;;;;;;;;;;13.43;100.00;95567.34;5084692;28;19936;-77
2023/06/10 04:02:48;;;;;;;;;;;;;;;13.35;100.00;95574.91;5066764;28;20442;-77
2023/06/10 04:05:15;;;;;;;;;;;;;;;13.40;100.00;95577.97;5080430;28;19924;-77
2023/06/10 04:07:43;;;;;;;;;;;;;;;13.45;100.00;95580.22;5065826;28;19928;-77
2023/06/10 04:10:10;;;;;;;;;;;;;;;13.57;100.00;95568.84;5076326;28;19963;-77
2023/06/10 04:12:36;;;;;;;;;;;;;;;13.63;100.00;95570.97;5069261;28;20016;-76
2023/06/10 04:15:05;;;;;;;;;;;;;;;13.56;100.00;95573.22;5072808;28;19928;-76
2023/06/10 04:17:32;;;;;;;;;;;;;;;13.48;100.00;95580.81;5081429;28;19934;-77
2023/06/10 04:19:58;;;;;;;;;;;;;;;13.59;100.00;95579.16;5065255;28;19955;-77
2023/06/10 04:22:25;;;;;;;;;;;;;;;13.50;100.00;95575.50;5079064;28;19968;-76
2023/06/10 04:24:51;;;;;;;;;;;;;;;13.53;100.00;95580.44;5075398;28;19935;-77
2023/06/10 04:27:17;;;;;;;;;;;;;;;13.61;100.00;95580.69;5081029;28;19931;-77
2023/06/10 04:29:44;;;;;;;;;;;;;;;13.60;100.00;95573.81;5077508;28;19928;-77
2023/06/10 04:32:11;;;;;;;;;;;;;;;13.53;100.00;95572.63;5078733;28;19933;-77
2023/06/10 04:34:38;;;;;;;;;;;;;;;13.54;100.00;95576.91;5084242;28;19924;-77
2023/06/10 04:37:05;;;;;;;;;;;;;;;13.67;100.00;95580.19;5069617;28;19925;-75
2023/06/10 04:39:31;;;;;;;;;;;;;;;13.79;100.00;95576.66;5084479;28;19935;-77
2023/06/10 04:41:57;;;;;;;;;;;;;;;13.95;100.00;95581.47;5081437;28;19924;-76
2023/06/10 04:44:24;;;;;;;;;;;;;;;14.11;100.00;95580.25;5087158;28;19928;-76
2023/06/10 04:46:50;;;;;;;;;;;;;;;14.13;100.00;95578.38;5075504;28;19977;-77
2023/06/10 04:49:17;;;;;;;;;;;;;;;14.34;100.00;95574.00;5088544;28;19939;-76
2023/06/10 04:51:44;;;;;;;;;;;;;;;14.37;100.00;95585.97;5077847;28;20283;-76
2023/06/10 04:54:10;;;;;;;;;;;;;;;14.48;100.00;95586.75;5082675;28;20001;-77
2023/06/10 04:56:36;;;;;;;;;;;;;;;14.62;100.00;95584.84;5080340;28;19973;-77
2023/06/10 04:59:03;;;;;;;;;;;;;;;14.79;100.00;95580.84;5067091;28;19955;-77
2023/06/10 05:01:29;;;;;;;;;;;;;;;14.97;100.00;95587.13;5074701;28;20287;-77
2023/06/10 05:03:55;;;;;;;;;;;;;;;14.96;100.00;95585.50;5071596;28;19924;-77
2023/06/10 05:06:23;;;;;;;;;;;;;;;15.05;100.00;95583.88;5085502;28;19936;-77
2023/06/10 05:08:49;;;;;;;;;;;;;;;15.22;100.00;95578.91;5084128;28;20350;-76
2023/06/10 05:11:15;;;;;;;;;;;;;;;15.42;100.00;95589.44;5084333;28;19931;-77
2023/06/10 05:13:42;;;;;;;;;;;;;;;15.58;100.00;95581.16;5065796;28;20292;-76
2023/06/10 05:16:09;;;;;;;;;;;;;;;15.79;100.00;95586.31;5072066;28;20279;-76
2023/06/10 05:18:35;;;;;;;;;;;;;;;15.95;100.00;95579.66;5079206;28;19925;-76
2023/06/10 05:21:02;;;;;;;;;;;;;;;16.13;100.00;95587.66;5067209;28;20405;-77
2023/06/10 05:23:29;;;;;;;;;;;;;;;16.34;100.00;95591.94;5077711;28;19924;-76
2023/06/10 05:25:56;;;;;;;;;;;;;;;16.60;100.00;95592.25;5081604;28;19973;-77
2023/06/10 05:28:22;;;;;;;;;;;;;;;16.68;100.00;95594.97;5078891;28;20563;-77
2023/06/10 05:30:48;;;;;;;;;;;;;;;16.73;100.00;95599.81;5083812;28;19927;-75
2023/06/10 05:33:14;;;;;;;;;;;;;;;16.88;100.00;95601.91;5074843;28;19924;-76
2023/06/10 05:35:41;;;;;;;;;;;;;;;16.91;100.00;95596.41;5073461;28;19978;-77
2023/06/10 05:38:07;;;;;;;;;;;;;;;17.03;100.00;95598.88;5070909;28;19987;-76
2023/06/10 05:40:35;;;;;;;;;;;;;;;17.21;100.00;95601.59;5078390;28;19986;-77
2023/06/10 05:43:01;;;;;;;;;;;;;;;17.21;100.00;95596.34;5075619;28;19951;-76
2023/06/10 05:45:27;;;;;;;;;;;;;;;17.25;100.00;95601.16;5086129;28;19924;-77
2023/06/10 05:47:54;;;;;;;;;;;;;;;17.46;100.00;95606.19;5078950;28;19932;-76
2023/06/10 05:50:20;;;;;;;;;;;;;;;17.64;100.00;95604.47;5081277;28;19931;-77
2023/06/10 05:52:46;;;;;;;;;;;;;;;17.79;100.00;95607.47;5085553;28;19924;-78
2023/06/10 05:55:12;;;;;;;;;;;;;;;17.80;100.00;95606.53;5064557;28;19932;-78
2023/06/10 05:57:42;;;;;;;;;;;;;;;17.72;100.00;95613.41;5073898;28;19925;-78
2023/06/10 06:00:09;;;;;;;;;;;;;;;17.69;100.00;95613.69;5078417;28;19924;-77
2023/06/10 06:02:35;;;;;;;;;;;;;;;17.87;100.00;95612.84;5056968;28;19924;-79
2023/06/10 06:05:01;;;;;;;;;;;;;;;18.19;100.00;95611.56;5071852;28;19936;-76
2023/06/10 06:07:28;;;;;;;;;;;;;;;18.25;100.00;95613.59;5068077;28;19939;-77
2023/06/10 06:09:54;;;;;;;;;;;;;;;18.50;100.00;95604.19;5083526;28;20401;-77
2023/06/10 06:12:20;;;;;;;;;;;;;;;18.53;99.99;95605.69;5068280;28;19939;-77
2023/06/10 06:14:49;;;;;;;;;;;;;;;18.63;100.00;95607.25;5071171;28;19936;-77
2023/06/10 06:17:15;;;;;;;;;;;;;;;18.61;100.00;95611.84;5089327;28;19924;-78
2023/06/10 06:19:41;;;;;;;;;;;;;;;18.67;100.00;95617.47;5073204;28;19951;-78
2023/06/10 06:22:07;;;;;;;;;;;;;;;18.77;100.00;95611.19;5078083;28;19924;-78
2023/06/10 06:24:34;;;;;;;;;;;;;;;18.95;98.76;95615.59;5084648;28;19936;-77
2023/06/10 06:27:00;;;;;;;;;;;;;;;18.76;99.07;95616.56;5079693;28;19925;-76
2023/06/10 06:29:26;;;;;;;;;;;;;;;18.80;97.91;95617.91;5076709;28;19928;-78
2023/06/10 06:31:54;;;;;;;;;;;;;;;18.66;98.14;95615.81;5071401;28;19929;-78
2023/06/10 06:34:20;;;;;;;;;;;;;;;18.94;96.95;95619.19;5083165;28;19924;-79
2023/06/10 06:36:47;;;;;;;;;;;;;;;19.25;95.14;95622.25;5077167;28;19929;-79
2023/06/10 06:39:13;;;;;;;;;;;;;;;19.23;94.88;95617.13;5073897;28;20300;-76
2023/06/10 06:41:39;;;;;;;;;;;;;;;19.57;97.10;95622.44;5073770;28;19925;-78
2023/06/10 06:44:06;;;;;;;;;;;;;;;20.11;93.97;95624.06;5079602;28;19981;-77
2023/06/10 06:46:32;;;;;;;;;;;;;;;20.22;89.12;95621.16;5087934;28;19949;-78
2023/06/10 06:49:00;;;;;;;;;;;;;;;20.58;94.82;95619.13;5086873;28;19932;-78
2023/06/10 06:51:26;;;;;;;;;;;;;;;20.90;89.64;95620.16;5082162;28;19932;-78
2023/06/10 06:53:56;;;;;;;;;;;;;;;21.21;87.58;95626.44;5069808;28;20620;-77
2023/06/10 06:56:22;;;;;;;;;;;;;;;21.52;88.11;95619.66;5063289;28;20595;-77
2023/06/10 06:58:49;;;;;;;;;;;;;;;21.85;85.50;95628.31;5070927;28;19925;-76
2023/06/10 07:01:15;;;;;;;;;;;;;;;21.87;82.36;95623.69;5076063;28;20401;-77
2023/06/10 07:03:42;;;;;;;;;;;;;;;22.05;82.41;95626.09;5080296;28;19973;-78
2023/06/10 07:06:09;;;;;;;;;;;;;;;22.16;81.65;95628.41;5076177;28;19932;-77
2023/06/10 07:08:36;;;;;;;;;;;;;;;22.22;79.90;95625.91;5076788;28;19932;-76
2023/06/10 07:11:02;;;;;;;;;;;;;;;22.23;78.58;95624.09;5068591;28;20019;-79
2023/06/10 07:13:28;;;;;;;;;;;;;;;22.53;80.07;95626.91;5070029;28;19981;-79
2023/06/10 07:15:55;;;;;;;;;;;;;;;22.60;77.86;95623.41;5065122;28;20302;-78
2023/06/10 07:18:21;;;;;;;;;;;;;;;22.57;74.64;95615.00;5079521;28;19928;-78
2023/06/10 07:20:47;;;;;;;;;;;;;;;22.74;75.23;95623.66;5075558;28;19925;-78
2023/06/10 07:23:15;;;;;;;;;;;;;;;22.69;79.96;95617.09;5083549;28;20009;-80
2023/06/10 07:25:42;;;;;;;;;;;;;;;22.80;81.16;95626.38;5077824;28;19933;-78
2023/06/10 07:28:08;;;;;;;;;;;;;;;23.05;78.68;95619.16;5081659;28;19928;-79
2023/06/10 07:30:34;;;;;;;;;;;;;;;22.85;78.26;95623.25;5078201;28;19973;-80
2023/06/10 07:33:02;;;;;;;;;;;;;;;22.80;80.12;95621.09;5074786;28;20302;-79
2023/06/10 07:35:28;;;;;;;;;;;;;;;22.98;79.71;95618.22;5080082;28;19924;-78
2023/06/10 07:37:54;;;;;;;;;;;;;;;23.07;74.69;95624.28;5071498;28;19928;-79
2023/06/10 07:40:22;;;;;;;;;;;;;;;23.04;80.79;95622.78;5085965;28;19932;-81
2023/06/10 07:42:48;;;;;;;;;;;;;;;23.13;75.01;95618.25;5084023;28;19925;-79
2023/06/10 07:45:14;;;;;;;;;;;;;;;23.24;75.50;95620.47;5082132;28;20018;-79
2023/06/10 07:47:41;;;;;;;;;;;;;;;23.46;74.23;95625.91;5087801;28;19935;-76
2023/06/10 07:50:07;;;;;;;;;;;;;;;23.58;72.24;95619.19;5084772;28;19977;-76
2023/06/10 07:52:33;;;;;;;;;;;;;;;23.64;71.08;95629.03;5079283;28;19924;-77
2023/06/10 07:55:00;;;;;;;;;;;;;;;23.57;69.07;95626.28;5082551;28;19982;-78
2023/06/10 07:57:27;;;;;;;;;;;;;;;23.71;66.14;95618.59;5066434;28;20322;-77
2023/06/10 07:59:54;;;;;;;;;;;;;;;23.88;66.56;95617.44;5078385;28;19932;-76
2023/06/10 08:02:21;;;;;;;;;;;;;;;24.12;67.50;95616.31;5070910;28;19996;-74
2023/06/10 08:04:47;;;;;;;;;;;;;;;24.26;63.87;95620.78;5077757;28;19929;-74
2023/06/10 08:07:14;;;;;;;;;;;;;;;24.44;66.17;95616.94;5079834;28;19977;-75
2023/06/10 08:09:40;;;;;;;;;;;;;;;24.56;62.63;95613.63;5075036;28;20450;-77
2023/06/10 08:12:07;;;;;;;;;;;;;;;24.53;60.46;95610.53;5069190;28;19952;-74
2023/06/10 08:14:34;;;;;;;;;;;;;;;24.57;64.57;95609.13;5068246;28;19929;-73
2023/06/10 08:17:01;;;;;;;;;;;;;;;24.74;59.69;95612.38;5073375;28;19929;-74
2023/06/10 08:19:27;;;;;;;;;;;;;;;24.80;60.04;95606.31;5069761;28;19932;-73
2023/06/10 08:21:53;;;;;;;;;;;;;;;24.97;62.74;95602.41;5078523;28;19924;-74
2023/06/10 08:24:19;;;;;;;;;;;;;;;25.10;61.13;95607.03;5067588;28;20348;-73
2023/06/10 08:26:46;;;;;;;;;;;;;;;25.21;61.70;95601.22;5075223;28;20031;-74
2023/06/10 08:29:13;;;;;;;;;;;;;;;25.41;62.50;95614.66;5082077;28;20298;-74
2023/06/10 08:31:43;;;;;;;;;;;;;;;25.53;57.23;95614.94;5059052;28;19979;-77
2023/06/10 08:34:10;;;;;;;;;;;;;;;25.57;59.31;95609.06;5081637;28;19978;-73
2023/06/10 08:36:36;;;;;;;;;;;;;;;25.65;58.68;95613.38;5078193;28;19928;-75
2023/06/10 08:39:03;;;;;;;;;;;;;;;25.55;57.55;95605.78;5079860;28;19925;-73
2023/06/10 08:41:31;;;;;;;;;;;;;;;25.67;57.25;95611.38;5076087;28;19928;-75
2023/06/10 08:44:03;;;;;;;;;;;;;;;25.87;57.77;95613.34;5075259;28;19954;-73
2023/06/10 08:46:32;;;;;;;;;;;;;;;25.91;57.40;95614.59;5078875;28;19928;-74
2023/06/10 08:49:03;;;;;;;;;;;;;;;25.74;57.84;95614.06;5076533;28;19932;-76
2023/06/10 08:51:30;;;;;;;;;;;;;;;25.87;53.46;95606.22;5076511;28;20333;-77
2023/06/10 08:54:01;;;;;;;;;;;;;;;25.86;54.84;95611.72;5077455;28;19971;-74
2023/06/10 08:56:29;;;;;;;;;;;;;;;25.86;58.32;95611.72;5082668;28;19924;-76
2023/06/10 08:58:56;;;;;;;;;;;;;;;25.74;56.30;95612.25;5068331;28;19986;-73
2023/06/10 09:01:23;;;;;;;;;;;;;;;25.85;56.17;95612.75;5067822;28;19924;-75
2023/06/10 09:03:50;;;;;;;;;;;;;;;25.88;54.99;95618.47;5068077;28;19924;-74
2023/06/10 09:06:18;;;;;;;;;;;;;;;26.05;58.67;95608.34;5079730;28;19927;-76
2023/06/10 09:08:45;;;;;;;;;;;;;;;26.20;54.89;95611.69;5076144;28;19932;-73
2023/06/10 09:11:11;;;;;;;;;;;;;;;26.29;56.40;95604.38;5076991;28;19974;-74
2023/06/10 09:13:37;;;;;;;;;;;;;;;26.06;53.02;95610.00;5066927;28;20329;-74
2023/06/10 09:16:04;;;;;;;;;;;;;;;26.11;56.58;95610.25;5062937;28;19993;-74
2023/06/10 09:18:30;;;;;;;;;;;;;;;26.06;55.99;95617.94;5071984;28;19924;-74
2023/06/10 09:20:57;;;;;;;;;;;;;;;26.13;53.35;95618.00;5072048;28;20579;-74
2023/06/10 09:23:25;;;;;;;;;;;;;;;26.25;53.23;95617.25;5067111;28;19967;-75
2023/06/10 09:25:57;;;;;;;;;;;;;;;26.27;57.69;95614.38;5067521;28;19936;-72
2023/06/10 09:28:23;;;;;;;;;;;;;;;26.45;54.92;95603.22;5066406;28;20414;-74
2023/06/10 09:30:49;;;;;;;;;;;;;;;26.41;52.04;95605.47;5074484;28;20268;-74
2023/06/10 09:33:16;;;;;;;;;;;;;;;26.52;54.19;95607.56;5075428;28;19939;-73
2023/06/10 09:35:46;;;;;;;;;;;;;;;26.58;52.60;95605.94;5075815;28;19924;-75
2023/06/10 09:38:13;;;;;;;;;;;;;;;26.64;50.70;95604.34;5061792;28;19932;-74
2023/06/10 09:40:49;;;;;;;;;;;;;;;26.47;49.03;95603.84;5084248;28;19923;-75
2023/06/10 09:43:15;;;;;;;;;;;;;;;26.74;51.87;95599.47;5068186;28;19932;-74
2023/06/10 09:45:43;;;;;;;;;;;;;;;26.72;53.52;95604.16;5075846;28;19928;-74
2023/06/10 09:48:09;;;;;;;;;;;;;;;26.73;55.70;95603.94;5081418;28;19924;-76
2023/06/10 09:50:35;;;;;;;;;;;;;;;26.59;51.01;95604.09;5075074;28;19929;-74
2023/06/10 09:53:02;;;;;;;;;;;;;;;26.70;52.16;95601.69;5069400;28;20353;-75
2023/06/10 09:55:29;;;;;;;;;;;;;;;26.82;49.01;95596.63;5065179;28;19925;-75
2023/06/10 09:57:56;;;;;;;;;;;;;;;26.81;51.78;95594.13;5069172;28;19936;-76
2023/06/10 10:00:23;;;;;;;;;;;;;;;26.93;55.50;95597.88;5081708;28;19924;-76
2023/06/10 10:02:52;;;;;;;;;;;;;;;27.11;52.71;95607.91;5058790;28;22254;-75
2023/06/10 10:05:19;;;;;;;;;;;;;;;27.16;52.36;95602.81;5068138;28;20417;-74
2023/06/10 10:07:46;;;;;;;;;;;;;;;27.15;51.89;95596.69;5075638;28;19925;-75
2023/06/10 10:10:13;;;;;;;;;;;;;;;27.14;50.21;95596.88;5082212;28;19970;-75
2023/06/10 10:12:40;;;;;;;;;;;;;;;27.17;50.29;95599.94;5069583;28;19932;-74
2023/06/10 10:15:09;;;;;;;;;;;;;;;26.76;50.13;95611.50;5070800;28;19990;-70
2023/06/10 10:17:35;;;;;;;;;;;;;;;26.33;51.79;95600.31;5073208;28;19986;-74
2023/06/10 10:20:03;;;;;;;;;;;;;;;26.37;53.07;95608.72;5070876;28;19932;-74
2023/06/10 10:22:30;;;;;;;;;;;;;;;25.97;55.87;95611.19;5060010;28;19929;-74
2023/06/10 10:24:58;;;;;;;;;;;;;;;25.92;55.51;95609.13;5068368;28;19974;-73
2023/06/10 10:27:27;;;;;;;;;;;;;;;25.59;54.33;95601.75;5074401;28;19954;-74
2023/06/10 10:29:55;;;;;;;;;;;;;;;25.85;53.85;95607.44;5075913;28;19939;-72
2023/06/10 10:32:35;;;;;;;;;;;;;;;25.89;53.62;95595.41;5077929;28;19981;-73
2023/06/10 10:35:05;;;;;;;;;;;;;;;26.43;53.12;95606.06;5079548;28;19925;-74
2023/06/10 10:37:32;;;;;;;;;;;;;;;26.33;52.79;95595.03;5066832;28;19924;-74
2023/06/10 10:39:58;;;;;;;;;;;;;;;26.35;54.89;95597.47;5070003;28;19924;-74
2023/06/10 10:42:25;;;;;;;;;;;;;;;26.56;51.60;95591.25;5070533;28;19963;-75
2023/06/10 10:44:52;;;;;;;;;;;;;;;26.36;52.49;95596.44;5075457;28;19977;-74
2023/06/10 10:47:21;;;;;;;;;;;;;;;26.28;54.00;95602.75;5074101;28;19924;-75
2023/06/10 10:49:52;;;;;;;;;;;;;;;26.45;50.97;95596.06;5073813;28;19932;-74
2023/06/10 10:52:18;;;;;;;;;;;;;;;26.90;50.66;95592.94;5072728;28;19925;-74
2023/06/10 10:54:46;;;;;;;;;;;;;;;27.03;54.45;95599.09;5070444;28;19924;-76
2023/06/10 10:57:13;;;;;;;;;;;;;;;26.89;51.93;95589.47;5077892;28;19924;-76
2023/06/10 10:59:55;;;;;;;;;;;;;;;26.77;52.33;95588.41;5071466;28;19969;-76
2023/06/10 11:02:33;;;;;;;;;;;;;;;26.37;50.35;95588.28;5063000;28;20479;-74
2023/06/10 11:05:01;;;;;;;;;;;;;;;26.49;50.00;95591.22;5066718;28;19924;-75
2023/06/10 11:07:27;;;;;;;;;;;;;;;26.71;51.87;95576.78;5067182;28;19950;-75
2023/06/10 11:10:00;;;;;;;;;;;;;;;26.93;47.74;95590.72;5075081;28;19924;-75
2023/06/10 11:12:26;;;;;;;;;;;;;;;26.21;46.65;95584.13;5057695;28;20379;-75
2023/06/10 11:14:55;;;;;;;;;;;;;;;25.95;49.66;95587.47;5060842;28;19924;-75
2023/06/10 11:17:21;;;;;;;;;;;;;;;26.35;52.04;95586.84;5058445;28;19932;-74
2023/06/10 11:19:48;;;;;;;;;;;;;;;26.37;48.27;95577.66;5062864;28;19979;-74
2023/06/10 11:22:18;;;;;;;;;;;;;;;26.33;49.32;95580.91;5072306;28;19961;-74
2023/06/10 11:24:48;;;;;;;;;;;;;;;26.33;55.12;95578.25;5065561;28;20564;-74
2023/06/10 11:27:18;;;;;;;;;;;;;;;26.20;51.62;95579.03;5082323;28;20327;-74
2023/06/10 11:29:58;;;;;;;;;;;;;;;26.06;48.90;95576.31;5058033;28;19928;-75
2023/06/10 11:32:25;;;;;;;;;;;;;;;26.04;50.19;95572.22;5068911;28;19932;-74
2023/06/10 11:34:53;;;;;;;;;;;;;;;25.57;53.31;95582.53;5072833;28;19935;-71
2023/06/10 11:37:21;;;;;;;;;;;;;;;25.40;54.23;95573.25;5079887;28;19928;-73
2023/06/10 11:39:47;;;;;;;;;;;;;;;25.61;56.36;95577.66;5071566;28;19936;-74
2023/06/10 11:42:14;;;;;;;;;;;;;;;25.75;53.01;95567.97;5075904;28;19931;-74
2023/06/10 11:44:48;;;;;;;;;;;;;;;25.69;56.67;95580.16;5066664;28;19931;-73
2023/06/10 11:47:14;;;;;;;;;;;;;;;26.33;65.01;95567.63;5079381;28;19939;-74
2023/06/10 11:49:40;;;;;;;;;;;;;;;26.29;53.51;95570.69;5081657;28;20349;-74
2023/06/10 11:52:07;;;;;;;;;;;;;;;26.25;52.71;95574.78;5076306;28;19933;-74
2023/06/10 11:54:34;;;;;;;;;;;;;;;25.63;51.54;95564.22;5080277;28;19924;-74
2023/06/10 11:57:02;;;;;;;;;;;;;;;25.55;57.43;95575.81;5077758;28;20417;-72
2023/06/10 11:59:29;;;;;;;;;;;;;;;25.64;55.40;95574.63;5073974;28;20382;-74
2023/06/10 12:01:55;;;;;;;;;;;;;;;25.77;58.54;95566.75;5073249;28;20017;-74
2023/06/10 12:04:22;;;;;;;;;;;;;;;25.91;55.87;95566.84;5070142;28;20007;-74
2023/06/10 12:06:49;;;;;;;;;;;;;;;26.15;57.27;95562.88;5069003;28;19936;-73
2023/06/10 12:09:16;;;;;;;;;;;;;;;26.24;56.58;95559.84;5077172;28;19928;-74
2023/06/10 12:11:44;;;;;;;;;;;;;;;26.40;58.18;95555.19;5072685;28;19968;-73
2023/06/10 12:14:10;;;;;;;;;;;;;;;26.14;55.66;95555.91;5064141;28;20420;-73
2023/06/10 12:16:37;;;;;;;;;;;;;;;25.74;54.13;95550.41;5063524;28;19924;-73
2023/06/10 12:19:03;;;;;;;;;;;;;;;25.81;57.38;95565.38;5064031;28;19932;-72
2023/06/10 12:21:30;;;;;;;;;;;;;;;25.40;52.98;95560.00;5070032;28;19951;-73
2023/06/10 12:24:06;;;;;;;;;;;;;;;25.14;56.75;95560.63;5081103;28;20422;-73
2023/06/10 12:26:50;;;;;;;;;;;;;;;25.12;55.57;95564.47;5074103;28;19927;-72
2023/06/10 12:29:20;;;;;;;;;;;;;;;25.29;53.98;95561.34;5082813;28;19931;-73
2023/06/10 12:31:53;;;;;;;;;;;;;;;25.67;58.03;95558.34;5064518;28;20430;-73
2023/06/10 12:34:19;;;;;;;;;;;;;;;25.76;52.21;95559.78;5071342;28;19970;-73
2023/06/10 12:36:48;;;;;;;;;;;;;;;25.62;49.93;95549.31;5070495;28;19939;-75
2023/06/10 12:39:15;;;;;;;;;;;;;;;25.44;50.67;95558.59;5084300;28;19931;-74
2023/06/10 12:41:41;;;;;;;;;;;;;;;25.50;53.68;95557.00;5064395;28;20023;-75
2023/06/10 12:44:08;;;;;;;;;;;;;;;25.43;51.79;95556.13;5064433;28;19925;-75